Time;durP1;ratioP1;P1;durP2;ratioP2;P2;SDS_P1;SDS_P2;PMS_P1;PMS_P2;Temp;Humidity;BMP_temperature;BMP_pressure;BME280_temperature;BME280_humidity;BME280_pressure;Samples;Min_cycle;Max_cycle;Signal;HPM_P1;HPM_P2
2022/11/29 00:01:18;;;;;;;52.88;26.52;;;9.20;99.90;;;;;;5083904;28;20032;-68
2022/11/29 00:03:44;;;;;;;53.03;26.42;;;9.20;99.90;;;;;;5079385;28;20036;-70
2022/11/29 00:06:14;;;;;;;54.45;27.42;;;9.20;99.90;;;;;;5084321;28;20068;-69
2022/11/29 00:08:41;;;;;;;58.17;25.83;;;9.20;99.90;;;;;;5086291;28;20076;-69
2022/11/29 00:12:10;;;;;;;55.80;26.70;;;9.20;99.90;;;;;;5100152;28;20028;-70
2022/11/29 00:14:00;;;;;;;51.25;28.92;;;9.20;99.90;;;;;;5084790;28;20163;-72
2022/11/29 00:16:27;;;;;;;53.58;28.27;;;9.20;99.90;;;;;;5081586;28;20161;-72
2022/11/29 00:18:53;;;;;;;53.95;29.83;;;9.20;99.90;;;;;;5083429;28;20028;-71
2022/11/29 00:21:19;;;;;;;56.55;30.00;;;9.10;99.90;;;;;;5085264;28;20044;-70
2022/11/29 00:23:45;;;;;;;51.97;27.13;;;9.20;99.90;;;;;;5084707;28;20103;-69
2022/11/29 00:26:11;;;;;;;47.55;27.88;;;9.10;99.90;;;;;;5085615;28;20067;-71
2022/11/29 00:28:36;;;;;;;54.72;28.40;;;9.20;99.90;;;;;;5086232;28;20126;-71
2022/11/29 00:31:32;;;;;;;48.47;28.08;;;9.20;99.90;;;;;;5086206;28;20099;-72
2022/11/29 00:34:01;;;;;;;49.88;27.85;;;9.20;99.90;;;;;;5051890;28;20068;-71
2022/11/29 00:36:27;;;;;;;46.95;27.70;;;9.30;99.90;;;;;;5079634;28;20020;-69
2022/11/29 00:38:53;;;;;;;45.10;27.13;;;9.20;99.90;;;;;;5083853;28;20149;-72
2022/11/29 00:41:19;;;;;;;34.40;23.48;;;9.20;99.90;;;;;;5080402;28;20049;-72
2022/11/29 00:43:45;;;;;;;37.55;23.38;;;9.20;99.90;;;;;;5082381;28;20036;-72
2022/11/29 00:46:12;;;;;;;41.47;22.55;;;9.20;99.90;;;;;;5080083;28;20044;-72
2022/11/29 00:48:38;;;;;;;38.90;21.80;;;9.20;99.90;;;;;;5081837;28;20078;-71
2022/11/29 00:51:05;;;;;;;42.83;23.63;;;9.20;99.90;;;;;;5084737;28;20428;-68
2022/11/29 00:53:33;;;;;;;50.08;26.80;;;9.20;99.90;;;;;;5083443;28;20100;-70
2022/11/29 00:56:02;;;;;;;44.58;25.55;;;9.10;99.90;;;;;;5084385;28;20029;-69
2022/11/29 00:58:28;;;;;;;44.97;26.10;;;9.10;99.90;;;;;;5076096;28;20085;-73
2022/11/29 01:00:54;;;;;;;75.78;38.53;;;9.10;99.90;;;;;;5083128;28;20038;-73
2022/11/29 01:03:21;;;;;;;75.07;39.40;;;9.10;99.90;;;;;;5083698;28;20102;-73
2022/11/29 01:05:49;;;;;;;60.78;32.58;;;9.10;99.90;;;;;;5086409;28;20480;-72
2022/11/29 01:08:16;;;;;;;72.18;32.83;;;9.10;99.90;;;;;;5089519;28;20115;-71
2022/11/29 01:10:44;;;;;;;61.20;32.78;;;9.10;99.90;;;;;;5085295;28;20029;-72
2022/11/29 01:13:10;;;;;;;66.47;32.75;;;9.10;99.90;;;;;;5083877;28;20024;-71
2022/11/29 01:15:36;;;;;;;58.90;32.75;;;9.00;99.90;;;;;;5080172;28;20070;-70
2022/11/29 01:18:02;;;;;;;65.30;35.28;;;9.10;99.90;;;;;;5081673;28;20031;-72
2022/11/29 01:20:28;;;;;;;57.15;31.52;;;9.10;99.90;;;;;;5080923;28;20048;-71
2022/11/29 01:22:54;;;;;;;61.60;31.88;;;9.10;99.90;;;;;;5084155;28;20474;-72
2022/11/29 01:25:21;;;;;;;53.22;27.50;;;9.10;99.90;;;;;;5084357;28;20119;-72
2022/11/29 01:27:47;;;;;;;61.78;31.08;;;9.10;99.90;;;;;;5081180;28;20039;-71
2022/11/29 01:30:13;;;;;;;50.72;27.30;;;9.10;99.90;;;;;;5081472;28;20073;-70
2022/11/29 01:32:39;;;;;;;53.97;28.63;;;9.20;99.90;;;;;;5079674;28;20062;-70
2022/11/29 01:35:05;;;;;;;57.03;29.42;;;9.20;99.90;;;;;;5081442;28;20020;-71
2022/11/29 01:37:31;;;;;;;47.05;27.60;;;9.20;99.90;;;;;;5102674;28;20028;-71
2022/11/29 01:39:57;;;;;;;53.70;25.33;;;9.20;99.90;;;;;;5086436;28;20036;-69
2022/11/29 01:42:23;;;;;;;47.53;27.65;;;9.20;99.90;;;;;;5084759;28;20050;-72
2022/11/29 01:44:49;;;;;;;42.80;24.27;;;9.20;99.90;;;;;;5086604;28;20038;-72
2022/11/29 01:47:17;;;;;;;48.42;25.65;;;9.20;99.90;;;;;;5083611;28;20023;-72
2022/11/29 01:49:48;;;;;;;46.80;24.98;;;9.20;99.90;;;;;;5086322;28;20540;-69
2022/11/29 01:52:19;;;;;;;53.55;27.83;;;9.20;99.90;;;;;;5087044;28;20522;-70
2022/11/29 01:54:50;;;;;;;49.38;27.90;;;9.20;99.90;;;;;;5087291;28;20428;-71
2022/11/29 01:57:18;;;;;;;51.45;26.58;;;9.10;99.90;;;;;;5084398;28;20422;-71
2022/11/29 01:59:47;;;;;;;44.13;25.52;;;9.20;99.90;;;;;;5088304;28;20020;-71
2022/11/29 02:02:28;;;;;;;58.08;29.52;;;9.20;99.90;;;;;;5083669;28;20127;-71
2022/11/29 02:04:54;;;;;;;51.95;28.15;;;9.20;99.90;;;;;;5084709;28;20027;-72
2022/11/29 02:07:20;;;;;;;65.57;35.08;;;9.20;99.90;;;;;;5088159;28;20031;-71
2022/11/29 02:09:47;;;;;;;71.30;36.10;;;9.20;99.90;;;;;;5083123;28;20029;-71
2022/11/29 02:12:23;;;;;;;74.53;37.42;;;9.10;99.90;;;;;;5087774;28;20028;-72
2022/11/29 02:15:31;;;;;;;69.47;36.55;;;9.10;99.90;;;;;;5088001;28;20042;-73
2022/11/29 02:18:28;;;;;;;62.60;33.53;;;9.20;99.90;;;;;;5081490;28;20080;-72
2022/11/29 02:21:01;;;;;;;70.50;36.60;;;9.20;99.90;;;;;;5086346;28;20044;-70
2022/11/29 02:23:33;;;;;;;63.50;33.88;;;9.20;99.90;;;;;;5088079;28;20107;-72
2022/11/29 02:26:30;;;;;;;62.20;34.33;;;9.30;99.90;;;;;;5081669;28;20077;-71
2022/11/29 02:29:17;;;;;;;73.93;36.33;;;9.30;99.90;;;;;;5087993;28;20031;-72
2022/11/29 02:32:20;;;;;;;97.72;42.50;;;9.20;99.90;;;;;;5082151;28;20495;-72
2022/11/29 02:35:12;;;;;;;66.75;36.40;;;9.30;99.90;;;;;;5085347;28;20063;-71
2022/11/29 02:37:55;;;;;;;75.95;36.55;;;9.30;99.90;;;;;;5080523;28;20847;-71
2022/11/29 02:40:33;;;;;;;72.80;36.80;;;9.30;99.90;;;;;;5101837;28;20050;-71
2022/11/29 02:43:44;;;;;;;78.07;36.53;;;9.30;99.90;;;;;;5084568;28;20051;-70
2022/11/29 02:46:17;;;;;;;73.93;36.28;;;9.30;99.90;;;;;;5042810;28;20037;-71
2022/11/29 02:48:57;;;;;;;81.20;38.63;;;9.20;99.90;;;;;;5078861;28;20108;-72
2022/11/29 02:52:00;;;;;;;70.13;35.20;;;9.20;99.90;;;;;;5093765;28;20024;-71
2022/11/29 02:54:45;;;;;;;69.35;33.53;;;9.20;99.90;;;;;;5074262;28;20075;-72
2022/11/29 02:57:16;;;;;;;72.47;35.00;;;9.30;99.90;;;;;;5098357;28;20028;-72
2022/11/29 02:59:49;;;;;;;65.43;36.70;;;9.30;99.90;;;;;;5082743;28;20016;-72
2022/11/29 03:02:32;;;;;;;59.72;32.42;;;9.30;99.90;;;;;;5086791;28;20552;-72
2022/11/29 03:05:21;;;;;;;65.78;33.17;;;9.30;99.90;;;;;;5085337;28;20027;-71
2022/11/29 03:08:05;;;;;;;73.80;35.08;;;9.30;99.90;;;;;;5085856;28;20036;-71
2022/11/29 03:10:55;;;;;;;62.90;31.30;;;9.30;99.90;;;;;;5084787;28;20031;-71
2022/11/29 03:13:35;;;;;;;67.03;35.65;;;9.20;99.90;;;;;;5085738;28;20119;-72
2022/11/29 03:16:13;;;;;;;73.28;35.65;;;9.20;99.90;;;;;;5084649;28;20020;-71
2022/11/29 03:19:17;;;;;;;65.28;34.80;;;9.20;99.90;;;;;;5100404;28;20154;-72
2022/11/29 03:22:11;;;;;;;67.13;33.55;;;9.30;99.90;;;;;;5083065;28;20042;-71
2022/11/29 03:25:00;;;;;;;72.97;33.33;;;9.30;99.90;;;;;;5086395;28;20034;-71
2022/11/29 03:27:46;;;;;;;64.47;31.15;;;9.30;99.90;;;;;;5085704;28;20028;-71
2022/11/29 03:30:17;;;;;;;75.45;34.65;;;9.30;99.90;;;;;;5082896;28;20491;-71
2022/11/29 03:33:13;;;;;;;75.32;35.53;;;9.30;99.90;;;;;;5081696;28;20499;-70
2022/11/29 03:35:46;;;;;;;68.50;34.50;;;9.30;99.90;;;;;;5082299;28;20032;-72
2022/11/29 03:38:32;;;;;;;74.65;36.95;;;9.30;99.90;;;;;;5082950;28;20024;-71
2022/11/29 03:41:08;;;;;;;83.85;37.03;;;9.30;99.90;;;;;;5076246;28;20042;-72
2022/11/29 03:44:07;;;;;;;67.47;31.38;;;9.40;99.90;;;;;;5086505;28;20032;-70
2022/11/29 03:46:45;;;;;;;68.78;34.75;;;9.30;99.90;;;;;;5086156;28;20051;-72
2022/11/29 03:49:21;;;;;;;66.38;34.30;;;9.30;99.90;;;;;;5080816;28;20607;-69
2022/11/29 03:52:14;;;;;;;67.78;31.33;;;9.30;99.90;;;;;;5100200;28;20039;-71
2022/11/29 03:55:01;;;;;;;67.32;33.42;;;9.30;99.90;;;;;;5086611;28;20028;-72
2022/11/29 03:57:52;;;;;;;61.88;32.72;;;9.20;99.90;;;;;;5086606;28;20024;-72
2022/11/29 04:00:18;;;;;;;77.30;35.78;;;9.20;99.90;;;;;;5054413;28;20119;-71
2022/11/29 04:03:28;;;;;;;85.93;37.03;;;9.20;99.90;;;;;;5086317;28;20132;-72
2022/11/29 04:06:06;;;;;;;74.63;34.65;;;9.20;99.90;;;;;;5070382;28;20040;-72
2022/11/29 04:09:09;;;;;;;81.35;37.15;;;9.20;99.90;;;;;;5080620;28;20028;-72
2022/11/29 04:11:54;;;;;;;;;;;9.10;99.90;;;;;;5086518;28;20103;-71
2022/11/29 04:14:33;;;;;;;153.27;42.70;;;9.10;99.90;;;;;;5084685;28;19952;-72
2022/11/29 04:17:32;;;;;;;73.28;31.80;;;9.00;99.90;;;;;;5087362;28;20028;-72
2022/11/29 04:20:35;;;;;;;65.20;31.58;;;9.00;99.90;;;;;;5085422;28;20055;-70
2022/11/29 04:23:19;;;;;;;;;;;9.00;99.90;;;;;;5081587;28;20104;-71
2022/11/29 04:26:26;;;;;;;61.70;29.77;;;9.10;99.90;;;;;;5085287;28;19915;-72
2022/11/29 04:28:57;;;;;;;58.85;29.42;;;9.10;99.90;;;;;;5079708;28;20081;-71
2022/11/29 04:31:53;;;;;;;64.03;29.95;;;9.10;99.90;;;;;;5084884;28;20031;-72
2022/11/29 04:34:22;;;;;;;83.07;37.42;;;9.00;99.90;;;;;;5082003;28;20542;-73
2022/11/29 04:37:05;;;;;;;75.30;33.00;;;9.00;99.90;;;;;;5085790;28;20125;-72
2022/11/29 04:39:37;;;;;;;68.82;33.65;;;9.00;99.90;;;;;;5085903;28;20120;-72
2022/11/29 04:42:17;;;;;;;58.88;30.38;;;9.00;99.90;;;;;;5082188;28;20059;-72
2022/11/29 04:45:02;;;;;;;66.97;29.67;;;9.00;99.90;;;;;;5084609;28;20035;-73
2022/11/29 04:47:47;;;;;;;59.85;29.85;;;9.00;99.90;;;;;;5083836;28;20471;-71
2022/11/29 04:50:45;;;;;;;68.97;32.72;;;9.00;99.90;;;;;;5081965;28;20472;-73
2022/11/29 04:53:37;;;;;;;54.70;28.55;;;9.00;99.90;;;;;;5082253;28;20111;-73
2022/11/29 04:56:35;;;;;;;69.82;31.55;;;9.00;99.90;;;;;;5082646;28;20028;-71
2022/11/29 04:59:11;;;;;;;62.13;30.83;;;9.00;99.90;;;;;;5079107;28;20028;-71
2022/11/29 05:02:15;;;;;;;60.80;28.80;;;8.90;99.90;;;;;;5084284;28;20500;-72
2022/11/29 05:04:57;;;;;;;56.47;29.65;;;8.90;99.90;;;;;;5054679;28;20036;-72
2022/11/29 05:07:29;;;;;;;;;;;9.00;99.90;;;;;;5085978;28;20027;-70
2022/11/29 05:10:00;;;;;;;64.07;31.20;;;9.00;99.90;;;;;;5086818;28;20264;-72
2022/11/29 05:12:58;;;;;;;62.13;29.63;;;9.00;99.90;;;;;;5084454;28;20028;-72
2022/11/29 05:16:10;;;;;;;86.68;35.72;;;8.90;99.90;;;;;;5087267;28;20464;-73
2022/11/29 05:19:01;;;;;;;83.80;36.08;;;8.90;99.90;;;;;;5090382;28;20028;-73
2022/11/29 05:21:29;;;;;;;77.75;35.03;;;8.90;99.90;;;;;;5084827;28;20027;-71
2022/11/29 05:24:21;;;;;;;72.82;32.00;;;9.00;99.90;;;;;;5089119;28;20082;-72
2022/11/29 05:27:09;;;;;;;81.18;33.08;;;9.00;99.90;;;;;;5088794;28;20106;-73
2022/11/29 05:30:05;;;;;;;67.82;32.40;;;9.00;99.90;;;;;;5082547;28;20114;-73
2022/11/29 05:32:56;;;;;;;80.43;33.97;;;9.00;99.90;;;;;;5087252;28;20031;-70
2022/11/29 05:35:51;;;;;;;78.38;34.35;;;9.00;99.90;;;;;;5085931;28;20387;-72
2022/11/29 05:38:38;;;;;;;102.45;38.17;;;9.00;99.90;;;;;;5088441;28;20055;-72
2022/11/29 05:41:22;;;;;;;63.88;27.33;;;9.00;99.90;;;;;;5088210;28;20464;-72
2022/11/29 05:44:12;;;;;;;80.05;35.83;;;8.90;99.90;;;;;;5082976;28;20032;-70
2022/11/29 05:47:04;;;;;;;152.07;41.75;;;8.90;99.90;;;;;;5087019;28;20027;-70
2022/11/29 05:49:33;;;;;;;89.45;33.92;;;9.00;99.90;;;;;;5082255;28;20096;-73
2022/11/29 05:52:23;;;;;;;127.00;41.60;;;9.10;99.90;;;;;;5086475;28;20036;-73
2022/11/29 05:55:05;;;;;;;201.48;51.13;;;9.10;99.90;;;;;;5089613;28;20473;-71
2022/11/29 05:57:59;;;;;;;98.35;39.72;;;9.10;99.90;;;;;;5088811;28;20024;-73
2022/11/29 06:00:32;;;;;;;117.10;42.95;;;9.10;99.90;;;;;;5087640;28;20433;-72
2022/11/29 06:03:18;;;;;;;250.73;52.72;;;9.10;99.90;;;;;;5082975;28;20032;-73
2022/11/29 06:05:52;;;;;;;155.77;50.40;;;9.10;99.90;;;;;;5085540;28;20024;-73
2022/11/29 06:08:34;;;;;;;111.10;44.25;;;9.20;99.90;;;;;;5088548;28;20081;-71
2022/11/29 06:11:12;;;;;;;152.88;50.55;;;9.20;99.90;;;;;;5087659;28;20054;-72
2022/11/29 06:13:53;;;;;;;164.95;48.65;;;9.20;99.90;;;;;;5088060;28;20023;-73
2022/11/29 06:16:35;;;;;;;167.20;49.05;;;9.20;99.90;;;;;;5089368;28;20352;-72
2022/11/29 06:19:25;;;;;;;119.50;45.03;;;9.30;99.90;;;;;;5088734;28;20036;-73
2022/11/29 06:22:20;;;;;;;127.88;46.90;;;9.30;99.90;;;;;;5087707;28;20081;-73
2022/11/29 06:24:46;;;;;;;124.70;43.55;;;9.30;99.90;;;;;;5087793;28;20415;-73
2022/11/29 06:27:30;;;;;;;161.57;47.10;;;9.30;99.90;;;;;;5087291;28;20073;-71
2022/11/29 06:30:10;;;;;;;120.03;45.42;;;9.30;99.90;;;;;;5087620;28;20078;-73
2022/11/29 06:32:53;;;;;;;107.78;43.80;;;9.40;99.90;;;;;;5087484;28;20030;-72
2022/11/29 06:35:37;;;;;;;135.45;47.35;;;9.40;99.90;;;;;;5093924;28;20434;-73
2022/11/29 06:38:14;;;;;;;145.82;49.08;;;9.40;99.90;;;;;;5088297;28;20023;-73
2022/11/29 06:40:40;;;;;;;107.25;43.75;;;9.40;99.90;;;;;;5089249;28;20356;-73
2022/11/29 06:43:05;;;;;;;120.78;47.17;;;9.40;99.90;;;;;;5089119;28;20054;-72
2022/11/29 06:45:31;;;;;;;149.32;46.97;;;9.40;99.90;;;;;;5092599;28;20026;-73
2022/11/29 06:48:02;;;;;;;421.02;65.38;;;9.40;99.90;;;;;;5093503;28;20108;-74
2022/11/29 06:50:48;;;;;;;622.83;89.95;;;9.30;99.90;;;;;;5093722;28;20040;-73
2022/11/29 06:53:28;;;;;;;142.90;44.88;;;9.30;99.90;;;;;;5087564;28;20059;-73
2022/11/29 06:56:07;;;;;;;131.23;46.50;;;9.30;99.90;;;;;;5091912;28;20056;-72
2022/11/29 06:59:10;;;;;;;174.93;53.60;;;9.40;99.90;;;;;;5092162;28;20016;-73
2022/11/29 07:02:10;;;;;;;142.98;48.80;;;9.40;99.90;;;;;;5092821;28;20043;-74
2022/11/29 07:05:10;;;;;;;91.13;41.15;;;9.40;99.90;;;;;;5104093;28;20040;-73
2022/11/29 07:07:36;;;;;;;100.10;42.03;;;9.40;99.90;;;;;;5083503;28;20040;-73
2022/11/29 07:10:04;;;;;;;89.82;40.05;;;9.40;99.90;;;;;;5087768;28;20031;-73
2022/11/29 07:12:30;;;;;;;111.78;42.42;;;9.40;99.90;;;;;;5090493;28;20107;-72
2022/11/29 07:14:56;;;;;;;103.70;43.70;;;9.40;99.90;;;;;;5088251;28;20436;-73
2022/11/29 07:17:33;;;;;;;162.00;46.03;;;9.40;99.90;;;;;;5092179;28;20031;-73
2022/11/29 07:20:25;;;;;;;124.78;43.50;;;9.40;99.90;;;;;;5089199;28;20056;-73
2022/11/29 07:23:06;;;;;;;129.77;47.58;;;9.50;99.90;;;;;;5091431;28;20055;-73
2022/11/29 07:25:42;;;;;;;140.48;48.53;;;9.40;99.90;;;;;;5084745;28;20027;-73
2022/11/29 07:28:15;;;;;;;143.05;45.97;;;9.50;99.90;;;;;;5088770;28;20078;-73
2022/11/29 07:31:08;;;;;;;140.57;41.85;;;9.50;99.90;;;;;;5090730;28;20081;-73
2022/11/29 07:34:11;;;;;;;115.07;40.83;;;9.50;99.90;;;;;;5091200;28;20032;-71
2022/11/29 07:37:02;;;;;;;103.37;38.57;;;9.50;99.90;;;;;;5086876;28;20032;-72
2022/11/29 07:39:40;;;;;;;130.75;41.58;;;9.50;99.90;;;;;;5086043;28;20019;-72
2022/11/29 07:42:24;;;;;;;174.40;45.08;;;9.50;99.90;;;;;;5091566;28;20040;-73
2022/11/29 07:45:08;;;;;;;134.90;41.22;;;9.40;99.90;;;;;;5086140;28;20023;-71
2022/11/29 07:47:34;;;;;;;134.43;39.88;;;9.40;99.90;;;;;;5081617;28;20028;-73
2022/11/29 07:49:59;;;;;;;109.32;39.28;;;9.40;99.90;;;;;;5089619;28;20081;-74
2022/11/29 07:52:25;;;;;;;172.50;42.13;;;9.40;99.90;;;;;;5088733;28;20471;-74
2022/11/29 07:54:50;;;;;;;146.75;43.00;;;9.40;99.90;;;;;;5087781;28;20024;-70
2022/11/29 07:57:16;;;;;;;274.17;54.67;;;9.40;99.90;;;;;;5090002;28;20396;-74
2022/11/29 07:59:42;;;;;;;496.63;72.50;;;9.40;99.90;;;;;;5091879;28;20161;-73
2022/11/29 08:02:09;;;;;;;142.50;42.55;;;9.40;99.90;;;;;;5088350;28;20043;-72
2022/11/29 08:04:40;;;;;;;122.18;43.38;;;9.40;99.90;;;;;;5082164;28;20016;-72
2022/11/29 08:07:06;;;;;;;113.28;40.60;;;9.40;99.90;;;;;;5087928;28;20034;-73
2022/11/29 08:09:31;;;;;;;131.25;43.03;;;9.40;99.90;;;;;;5090283;28;20023;-73
2022/11/29 08:11:57;;;;;;;328.35;67.13;;;9.50;99.90;;;;;;5088003;28;20525;-72
2022/11/29 08:14:23;;;;;;;103.53;41.95;;;9.40;99.90;;;;;;5090924;28;20024;-70
2022/11/29 08:16:49;;;;;;;169.98;49.63;;;9.40;99.90;;;;;;5091686;28;20110;-71
2022/11/29 08:19:14;;;;;;;148.80;44.65;;;9.50;99.90;;;;;;5089816;28;20032;-72
2022/11/29 08:21:45;;;;;;;109.45;41.00;;;9.50;99.90;;;;;;5086993;28;20039;-72
2022/11/29 08:24:11;;;;;;;93.97;40.17;;;9.50;99.90;;;;;;5090058;28;20020;-71
2022/11/29 08:26:37;;;;;;;101.45;41.63;;;9.50;99.90;;;;;;5088256;28;20032;-72
2022/11/29 08:29:02;;;;;;;124.10;45.33;;;9.50;99.90;;;;;;5089882;28;20035;-72
2022/11/29 08:31:28;;;;;;;107.63;41.13;;;9.50;99.90;;;;;;5085787;28;20036;-71
2022/11/29 08:33:53;;;;;;;99.28;43.38;;;9.60;99.90;;;;;;5085467;28;20501;-72
2022/11/29 08:36:19;;;;;;;92.55;39.15;;;9.50;99.90;;;;;;5089169;28;20032;-72
2022/11/29 08:38:45;;;;;;;94.07;40.65;;;9.50;99.90;;;;;;5086555;28;20034;-73
2022/11/29 08:41:14;;;;;;;115.97;41.22;;;9.40;99.90;;;;;;5086915;28;20052;-73
2022/11/29 08:43:40;;;;;;;110.18;40.85;;;9.40;99.90;;;;;;5086471;28;20115;-73
2022/11/29 08:46:06;;;;;;;90.78;37.50;;;9.40;99.90;;;;;;5089420;28;20103;-71
2022/11/29 08:48:31;;;;;;;89.18;34.88;;;9.40;99.90;;;;;;5088552;28;20066;-72
2022/11/29 08:50:57;;;;;;;98.20;39.22;;;9.50;99.90;;;;;;5086527;28;20096;-70
2022/11/29 08:53:42;;;;;;;95.68;36.83;;;9.40;99.90;;;;;;5086932;28;20089;-69
2022/11/29 08:56:09;;;;;;;89.35;37.42;;;9.50;99.90;;;;;;5084821;28;20039;-70
2022/11/29 08:58:35;;;;;;;107.53;41.33;;;9.50;99.90;;;;;;5088005;28;20028;-70
2022/11/29 09:01:01;;;;;;;153.35;46.40;;;9.50;99.90;;;;;;5091445;28;20032;-70
2022/11/29 09:06:14;;;;;;;126.82;41.70;;;9.60;99.90;;;;;;5088421;28;20058;-73
2022/11/29 09:08:44;;;;;;;131.73;42.30;;;9.60;99.90;;;;;;5088189;28;20020;-72
2022/11/29 09:11:20;;;;;;;118.35;38.33;;;9.60;99.90;;;;;;5089589;28;20024;-73
2022/11/29 09:13:48;;;;;;;135.38;41.47;;;9.60;99.90;;;;;;5090198;28;20059;-73
2022/11/29 09:16:17;;;;;;;126.20;40.83;;;9.70;99.90;;;;;;5091317;28;20024;-72
2022/11/29 09:18:43;;;;;;;118.70;40.92;;;9.70;99.90;;;;;;5084553;28;20023;-72
2022/11/29 09:21:11;;;;;;;155.45;45.92;;;9.70;99.90;;;;;;5088479;28;20115;-70
2022/11/29 09:23:38;;;;;;;175.93;45.33;;;9.70;99.90;;;;;;5089419;28;20498;-70
2022/11/29 09:26:05;;;;;;;111.90;39.47;;;9.80;99.90;;;;;;5084885;28;20023;-71
2022/11/29 09:28:32;;;;;;;137.73;44.65;;;9.80;99.90;;;;;;5088832;28;20139;-73
2022/11/29 09:31:09;;;;;;;130.05;41.83;;;9.80;99.90;;;;;;5085987;28;20106;-70
2022/11/29 09:33:35;;;;;;;104.38;39.92;;;9.80;99.90;;;;;;5084783;28;20032;-70
2022/11/29 09:36:01;;;;;;;111.15;41.28;;;9.80;99.90;;;;;;5085927;28;20024;-69
2022/11/29 09:38:27;;;;;;;105.60;41.92;;;9.70;99.90;;;;;;5087965;28;20058;-69
2022/11/29 09:40:55;;;;;;;107.03;40.35;;;9.70;99.90;;;;;;5089199;28;20480;-72
2022/11/29 09:43:21;;;;;;;99.63;40.78;;;9.80;99.90;;;;;;5087906;28;20044;-71
2022/11/29 09:45:52;;;;;;;117.32;43.63;;;9.80;99.90;;;;;;5083424;28;20020;-73
2022/11/29 09:48:21;;;;;;;185.77;51.50;;;9.80;99.90;;;;;;5089437;28;20027;-73
2022/11/29 09:50:56;;;;;;;174.55;53.17;;;9.80;99.90;;;;;;5085070;28;20540;-73
2022/11/29 09:53:42;;;;;;;109.22;42.47;;;9.80;99.90;;;;;;5089436;28;20023;-73
2022/11/29 09:56:30;;;;;;;105.60;42.08;;;9.80;99.90;;;;;;5088180;28;20047;-71
2022/11/29 09:59:03;;;;;;;105.18;41.97;;;9.90;99.90;;;;;;5087534;28;20027;-73
2022/11/29 10:01:38;;;;;;;188.63;52.15;;;9.90;99.90;;;;;;5087424;28;20044;-73
2022/11/29 10:04:11;;;;;;;273.55;47.88;;;9.90;99.90;;;;;;5089132;28;20016;-71
2022/11/29 10:06:44;;;;;;;104.10;38.13;;;10.00;99.90;;;;;;5089181;28;20032;-69
2022/11/29 10:09:20;;;;;;;192.13;40.50;;;9.90;99.90;;;;;;5091978;28;20058;-70
2022/11/29 10:12:10;;;;;;;133.60;39.35;;;10.00;99.90;;;;;;5092614;28;20422;-72
2022/11/29 10:14:50;;;;;;;100.70;34.92;;;10.00;99.90;;;;;;5089030;28;20028;-69
2022/11/29 10:17:38;;;;;;;110.82;37.22;;;10.00;99.90;;;;;;5091142;28;20024;-73
2022/11/29 10:20:09;;;;;;;112.88;34.63;;;10.00;99.90;;;;;;5084840;28;20042;-69
2022/11/29 10:22:54;;;;;;;406.00;55.85;;;10.00;99.90;;;;;;5091701;28;20040;-69
2022/11/29 10:25:23;;;;;;;128.98;35.33;;;10.00;99.90;;;;;;5088530;28;20019;-70
2022/11/29 10:27:49;;;;;;;111.78;35.30;;;10.10;99.90;;;;;;5090970;28;20498;-70
2022/11/29 10:30:16;;;;;;;355.90;50.60;;;10.00;99.90;;;;;;5089330;28;20028;-70
2022/11/29 10:32:45;;;;;;;215.75;40.03;;;10.00;99.90;;;;;;5091917;28;20082;-70
2022/11/29 10:35:17;;;;;;;99.00;30.88;;;10.00;99.90;;;;;;5090007;28;20154;-70
2022/11/29 10:37:43;;;;;;;175.00;37.30;;;10.00;99.90;;;;;;5088504;28;20070;-70
2022/11/29 10:40:14;;;;;;;99.03;34.90;;;10.00;99.90;;;;;;5093465;28;20056;-69
2022/11/29 10:42:53;;;;;;;154.05;38.35;;;10.00;99.90;;;;;;5091245;28;20507;-69
2022/11/29 10:45:29;;;;;;;124.40;34.17;;;10.00;99.90;;;;;;5087076;28;20500;-70
2022/11/29 10:48:01;;;;;;;75.80;32.42;;;10.00;99.90;;;;;;5089471;28;20038;-70
2022/11/29 10:50:33;;;;;;;90.85;33.95;;;10.00;99.90;;;;;;5090053;28;20433;-69
2022/11/29 10:53:08;;;;;;;198.57;38.08;;;10.00;99.90;;;;;;5087126;28;20091;-70
2022/11/29 10:55:44;;;;;;;99.80;34.10;;;10.10;99.90;;;;;;5085875;28;20020;-69
2022/11/29 10:58:15;;;;;;;118.43;36.85;;;10.10;99.90;;;;;;5088636;28;20504;-69
2022/11/29 11:00:58;;;;;;;96.00;34.35;;;10.10;99.90;;;;;;5087174;28;20028;-70
2022/11/29 11:03:48;;;;;;;88.25;34.00;;;10.10;99.90;;;;;;5087365;28;20048;-69
2022/11/29 11:06:18;;;;;;;94.25;32.45;;;10.00;99.90;;;;;;5085936;28;20060;-69
2022/11/29 11:09:10;;;;;;;75.63;32.25;;;10.10;99.90;;;;;;5087875;28;20055;-69
2022/11/29 11:11:35;;;;;;;94.28;34.10;;;10.10;99.90;;;;;;5088970;28;20050;-71
2022/11/29 11:14:18;;;;;;;80.13;32.33;;;10.10;99.90;;;;;;5093752;28;20019;-68
2022/11/29 11:16:43;;;;;;;68.32;32.00;;;10.10;99.90;;;;;;5086219;28;20572;-69
2022/11/29 11:19:26;;;;;;;126.43;36.05;;;10.10;99.90;;;;;;5088432;28;20036;-69
2022/11/29 11:21:54;;;;;;;148.80;39.95;;;10.10;99.90;;;;;;5089027;28;20536;-69
2022/11/29 11:24:26;;;;;;;123.75;36.95;;;10.10;99.90;;;;;;5090391;28;20601;-70
2022/11/29 11:26:52;;;;;;;121.20;36.70;;;10.10;99.90;;;;;;5088793;28;20028;-69
2022/11/29 11:29:24;;;;;;;97.55;36.63;;;10.00;99.90;;;;;;5085244;28;20103;-70
2022/11/29 11:31:55;;;;;;;82.50;36.20;;;9.90;99.90;;;;;;5087467;28;20024;-70
2022/11/29 11:34:27;;;;;;;122.05;35.95;;;10.10;99.90;;;;;;5087180;28;20025;-70
2022/11/29 11:37:12;;;;;;;74.00;32.75;;;10.10;99.90;;;;;;5091162;28;20031;-69
2022/11/29 11:39:37;;;;;;;157.50;43.03;;;10.20;99.90;;;;;;5088718;28;20020;-70
2022/11/29 11:44:51;;;;;;;68.40;32.28;;;10.10;99.90;;;;;;5090720;28;20039;-70
2022/11/29 11:47:28;;;;;;;74.93;33.90;;;10.20;99.90;;;;;;5080589;28;20020;-69
2022/11/29 11:50:03;;;;;;;70.07;31.15;;;10.20;99.90;;;;;;5091746;28;20039;-70
2022/11/29 11:52:33;;;;;;;74.20;31.98;;;10.10;99.90;;;;;;5083699;28;20036;-70
2022/11/29 11:55:06;;;;;;;93.80;34.08;;;10.20;99.90;;;;;;5089448;28;20052;-69
2022/11/29 11:57:32;;;;;;;76.57;31.17;;;10.20;99.90;;;;;;5090133;28;20059;-70
2022/11/29 11:59:59;;;;;;;90.15;32.15;;;10.20;99.90;;;;;;5088011;28;20066;-69
2022/11/29 12:15:27;;;;;;;68.40;29.17;;;9.40;99.90;;;;;;5081189;27;20925;-70
2022/11/29 12:18:00;;;;;;;74.45;31.25;;;9.20;99.90;;;;;;5060298;28;20105;-70
2022/11/29 12:20:35;;;;;;;71.18;32.40;;;9.30;99.90;;;;;;5064713;28;20032;-69
2022/11/29 12:23:10;;;;;;;76.50;33.63;;;9.40;99.90;;;;;;5064456;28;20186;-70
2022/11/29 12:25:49;;;;;;;75.15;34.33;;;9.60;99.90;;;;;;5062849;28;20048;-69
2022/11/29 12:28:16;;;;;;;88.13;35.67;;;9.70;99.90;;;;;;5060800;28;20033;-73
2022/11/29 12:31:01;;;;;;;75.35;33.88;;;9.80;99.90;;;;;;5061648;28;20024;-73
2022/11/29 12:34:01;;;;;;;83.50;34.30;;;9.90;99.90;;;;;;5062362;28;20044;-73
2022/11/29 12:36:55;;;;;;;81.57;34.60;;;10.00;99.90;;;;;;5059856;28;20028;-73
2022/11/29 12:39:27;;;;;;;85.32;36.08;;;10.10;99.90;;;;;;5062736;28;20023;-74
2022/11/29 12:42:19;;;;;;;81.47;34.97;;;10.10;99.90;;;;;;5065192;28;20025;-73
2022/11/29 12:45:20;;;;;;;84.13;39.03;;;10.20;99.90;;;;;;5063506;28;20386;-71
2022/11/29 12:48:12;;;;;;;77.43;35.38;;;10.20;99.90;;;;;;5012227;28;20093;-73
2022/11/29 12:51:03;;;;;;;70.10;34.27;;;10.20;99.90;;;;;;5059544;28;20909;-73
2022/11/29 12:54:06;;;;;;;87.18;38.03;;;10.20;99.90;;;;;;5087672;28;20035;-73
2022/11/29 12:56:39;;;;;;;72.43;36.80;;;10.20;99.90;;;;;;5045167;28;20032;-71
2022/11/29 12:59:34;;;;;;;80.57;37.33;;;10.20;99.90;;;;;;5041244;28;20040;-71
2022/11/29 13:02:28;;;;;;;80.00;34.03;;;10.20;99.90;;;;;;5041952;28;20049;-70
2022/11/29 13:05:02;;;;;;;86.53;36.20;;;10.20;99.90;;;;;;5037670;28;20022;-70
2022/11/29 13:07:51;;;;;;;68.35;33.08;;;10.20;99.90;;;;;;5042926;28;20440;-69
2022/11/29 13:10:28;;;;;;;79.43;35.58;;;10.20;99.90;;;;;;5042924;28;20025;-70
2022/11/29 13:13:27;;;;;;;75.43;34.90;;;10.30;99.90;;;;;;5041070;28;20021;-69
2022/11/29 13:16:02;;;;;;;64.78;33.65;;;10.20;99.90;;;;;;5041432;28;20452;-71
2022/11/29 13:19:09;;;;;;;60.97;30.55;;;10.30;99.90;;;;;;5034966;28;20033;-70
2022/11/29 13:22:12;;;;;;;72.70;33.55;;;10.30;99.90;;;;;;5039171;28;20036;-70
2022/11/29 13:25:06;;;;;;;70.68;32.90;;;10.30;99.90;;;;;;5036735;28;20039;-71
2022/11/29 13:27:36;;;;;;;78.75;35.22;;;10.40;99.90;;;;;;5022085;28;20486;-71
2022/11/29 13:30:03;;;;;;;82.53;36.53;;;10.30;99.90;;;;;;5027843;28;20112;-71
2022/11/29 13:32:36;;;;;;;84.82;36.88;;;10.20;99.90;;;;;;5028389;28;20079;-71
2022/11/29 13:35:20;;;;;;;74.80;34.58;;;10.30;99.90;;;;;;5026584;28;20041;-70
2022/11/29 13:37:55;;;;;;;78.70;35.22;;;10.30;99.90;;;;;;5029935;28;20112;-71
2022/11/29 13:40:27;;;;;;;84.38;35.63;;;10.30;99.90;;;;;;5029481;28;20064;-70
2022/11/29 13:43:19;;;;;;;86.60;36.08;;;10.30;99.90;;;;;;5029308;28;20048;-70